sensor_id;sensor_type;location;lat;lon;timestamp;P1;durP1;ratioP1;P2;durP2;ratioP2
18505;SDS011;9382;53.242;10.438;2022-12-07T00:01:20;39.93;;;20.00;;
18505;SDS011;9382;53.242;10.438;2022-12-07T00:03:48;39.73;;;19.37;;
18505;SDS011;9382;53.242;10.438;2022-12-07T00:06:18;38.20;;;19.73;;
18505;SDS011;9382;53.242;10.438;2022-12-07T00:08:45;36.20;;;18.47;;
18505;SDS011;9382;53.242;10.438;2022-12-07T00:11:14;36.17;;;18.97;;
18505;SDS011;9382;53.242;10.438;2022-12-07T00:13:42;37.33;;;18.23;;
18505;SDS011;9382;53.242;10.438;2022-12-07T00:16:10;35.37;;;18.63;;
18505;SDS011;9382;53.242;10.438;2022-12-07T00:18:39;32.80;;;17.90;;
18505;SDS011;9382;53.242;10.438;2022-12-07T00:21:07;36.10;;;18.20;;
18505;SDS011;9382;53.242;10.438;2022-12-07T00:23:37;31.50;;;17.77;;
18505;SDS011;9382;53.242;10.438;2022-12-07T00:26:05;35.93;;;18.57;;
18505;SDS011;9382;53.242;10.438;2022-12-07T00:28:32;35.33;;;18.30;;
18505;SDS011;9382;53.242;10.438;2022-12-07T00:31:00;32.50;;;17.17;;
18505;SDS011;9382;53.242;10.438;2022-12-07T00:33:31;36.33;;;17.70;;
18505;SDS011;9382;53.242;10.438;2022-12-07T00:35:58;34.90;;;17.83;;
18505;SDS011;9382;53.242;10.438;2022-12-07T00:38:27;36.73;;;18.57;;
18505;SDS011;9382;53.242;10.438;2022-12-07T00:40:59;34.17;;;17.43;;
18505;SDS011;9382;53.242;10.438;2022-12-07T00:43:26;36.67;;;18.67;;
18505;SDS011;9382;53.242;10.438;2022-12-07T00:45:54;34.97;;;18.60;;
18505;SDS011;9382;53.242;10.438;2022-12-07T00:48:21;34.80;;;18.13;;
18505;SDS011;9382;53.242;10.438;2022-12-07T00:50:48;35.87;;;19.10;;
18505;SDS011;9382;53.242;10.438;2022-12-07T00:53:15;34.70;;;17.57;;
18505;SDS011;9382;53.242;10.438;2022-12-07T00:55:43;38.60;;;18.30;;
18505;SDS011;9382;53.242;10.438;2022-12-07T00:58:11;39.33;;;19.43;;
18505;SDS011;9382;53.242;10.438;2022-12-07T01:00:38;34.67;;;17.13;;
18505;SDS011;9382;53.242;10.438;2022-12-07T01:03:07;36.80;;;18.13;;
18505;SDS011;9382;53.242;10.438;2022-12-07T01:05:35;38.47;;;18.27;;
18505;SDS011;9382;53.242;10.438;2022-12-07T01:08:02;35.77;;;17.13;;
18505;SDS011;9382;53.242;10.438;2022-12-07T01:10:30;37.00;;;18.67;;
18505;SDS011;9382;53.242;10.438;2022-12-07T01:12:57;38.80;;;17.97;;
18505;SDS011;9382;53.242;10.438;2022-12-07T01:15:26;34.73;;;17.77;;
18505;SDS011;9382;53.242;10.438;2022-12-07T01:17:53;33.07;;;17.07;;
18505;SDS011;9382;53.242;10.438;2022-12-07T01:20:20;34.93;;;16.83;;
18505;SDS011;9382;53.242;10.438;2022-12-07T01:22:47;34.57;;;16.40;;
18505;SDS011;9382;53.242;10.438;2022-12-07T01:25:14;34.27;;;16.93;;
18505;SDS011;9382;53.242;10.438;2022-12-07T01:27:41;38.83;;;17.33;;
18505;SDS011;9382;53.242;10.438;2022-12-07T01:30:09;34.77;;;17.30;;
18505;SDS011;9382;53.242;10.438;2022-12-07T01:32:39;31.60;;;16.83;;
18505;SDS011;9382;53.242;10.438;2022-12-07T01:35:06;33.70;;;16.33;;
18505;SDS011;9382;53.242;10.438;2022-12-07T01:37:34;33.10;;;16.17;;
18505;SDS011;9382;53.242;10.438;2022-12-07T01:40:02;39.10;;;17.30;;
18505;SDS011;9382;53.242;10.438;2022-12-07T01:42:30;34.67;;;16.77;;
18505;SDS011;9382;53.242;10.438;2022-12-07T01:48:01;36.97;;;16.03;;
18505;SDS011;9382;53.242;10.438;2022-12-07T01:50:29;32.70;;;16.43;;
18505;SDS011;9382;53.242;10.438;2022-12-07T01:52:57;32.83;;;15.97;;
18505;SDS011;9382;53.242;10.438;2022-12-07T01:55:27;35.57;;;16.50;;
18505;SDS011;9382;53.242;10.438;2022-12-07T01:57:55;36.17;;;16.87;;
18505;SDS011;9382;53.242;10.438;2022-12-07T02:00:22;31.60;;;16.40;;
18505;SDS011;9382;53.242;10.438;2022-12-07T02:02:51;33.87;;;16.93;;
18505;SDS011;9382;53.242;10.438;2022-12-07T02:05:23;29.17;;;15.03;;
18505;SDS011;9382;53.242;10.438;2022-12-07T02:07:51;33.90;;;17.37;;
18505;SDS011;9382;53.242;10.438;2022-12-07T02:10:21;32.80;;;17.07;;
18505;SDS011;9382;53.242;10.438;2022-12-07T02:12:50;33.17;;;16.90;;
18505;SDS011;9382;53.242;10.438;2022-12-07T02:15:20;36.27;;;17.27;;
18505;SDS011;9382;53.242;10.438;2022-12-07T02:17:55;29.57;;;16.10;;
18505;SDS011;9382;53.242;10.438;2022-12-07T02:20:32;34.60;;;16.43;;
18505;SDS011;9382;53.242;10.438;2022-12-07T02:23:12;34.87;;;17.47;;
18505;SDS011;9382;53.242;10.438;2022-12-07T02:26:16;30.43;;;15.77;;
18505;SDS011;9382;53.242;10.438;2022-12-07T02:29:07;31.53;;;16.27;;
18505;SDS011;9382;53.242;10.438;2022-12-07T02:31:41;36.60;;;16.37;;
18505;SDS011;9382;53.242;10.438;2022-12-07T02:34:14;32.70;;;16.33;;
18505;SDS011;9382;53.242;10.438;2022-12-07T02:36:50;29.23;;;15.07;;
18505;SDS011;9382;53.242;10.438;2022-12-07T02:39:23;32.80;;;15.90;;
18505;SDS011;9382;53.242;10.438;2022-12-07T02:41:55;31.60;;;14.93;;
18505;SDS011;9382;53.242;10.438;2022-12-07T02:44:27;28.30;;;15.03;;
18505;SDS011;9382;53.242;10.438;2022-12-07T02:46:57;27.30;;;14.60;;
18505;SDS011;9382;53.242;10.438;2022-12-07T02:49:27;30.57;;;14.87;;
18505;SDS011;9382;53.242;10.438;2022-12-07T02:51:56;30.80;;;14.87;;
18505;SDS011;9382;53.242;10.438;2022-12-07T02:54:23;26.87;;;14.00;;
18505;SDS011;9382;53.242;10.438;2022-12-07T02:56:50;28.97;;;14.77;;
18505;SDS011;9382;53.242;10.438;2022-12-07T02:59:28;28.77;;;14.13;;
18505;SDS011;9382;53.242;10.438;2022-12-07T03:02:04;26.87;;;13.40;;
18505;SDS011;9382;53.242;10.438;2022-12-07T03:04:42;28.60;;;13.30;;
18505;SDS011;9382;53.242;10.438;2022-12-07T03:07:18;23.00;;;12.57;;
18505;SDS011;9382;53.242;10.438;2022-12-07T03:09:53;26.43;;;12.23;;
18505;SDS011;9382;53.242;10.438;2022-12-07T03:12:28;28.37;;;12.00;;
18505;SDS011;9382;53.242;10.438;2022-12-07T03:15:01;23.87;;;11.33;;
18505;SDS011;9382;53.242;10.438;2022-12-07T03:17:33;28.50;;;12.60;;
18505;SDS011;9382;53.242;10.438;2022-12-07T03:20:04;19.60;;;10.10;;
18505;SDS011;9382;53.242;10.438;2022-12-07T03:22:34;21.00;;;10.60;;
18505;SDS011;9382;53.242;10.438;2022-12-07T03:25:04;20.27;;;10.30;;
18505;SDS011;9382;53.242;10.438;2022-12-07T03:27:35;23.53;;;10.13;;
18505;SDS011;9382;53.242;10.438;2022-12-07T03:30:09;23.60;;;9.63;;
18505;SDS011;9382;53.242;10.438;2022-12-07T03:32:39;16.13;;;9.10;;
18505;SDS011;9382;53.242;10.438;2022-12-07T03:35:11;19.10;;;9.43;;
18505;SDS011;9382;53.242;10.438;2022-12-07T03:37:43;19.93;;;8.50;;
18505;SDS011;9382;53.242;10.438;2022-12-07T03:40:14;16.77;;;8.27;;
18505;SDS011;9382;53.242;10.438;2022-12-07T03:42:48;17.73;;;9.20;;
18505;SDS011;9382;53.242;10.438;2022-12-07T03:45:19;16.30;;;8.67;;
18505;SDS011;9382;53.242;10.438;2022-12-07T03:47:50;17.13;;;8.67;;
18505;SDS011;9382;53.242;10.438;2022-12-07T03:50:27;16.03;;;8.47;;
18505;SDS011;9382;53.242;10.438;2022-12-07T03:52:58;18.03;;;8.00;;
18505;SDS011;9382;53.242;10.438;2022-12-07T03:55:31;19.23;;;8.03;;
18505;SDS011;9382;53.242;10.438;2022-12-07T03:58:03;17.33;;;7.53;;
18505;SDS011;9382;53.242;10.438;2022-12-07T04:00:33;18.50;;;7.73;;
18505;SDS011;9382;53.242;10.438;2022-12-07T04:03:01;16.97;;;7.93;;
18505;SDS011;9382;53.242;10.438;2022-12-07T04:05:28;14.27;;;7.50;;
18505;SDS011;9382;53.242;10.438;2022-12-07T04:07:55;16.90;;;7.30;;
18505;SDS011;9382;53.242;10.438;2022-12-07T04:10:22;18.17;;;7.50;;
18505;SDS011;9382;53.242;10.438;2022-12-07T04:12:48;12.43;;;6.93;;
18505;SDS011;9382;53.242;10.438;2022-12-07T04:15:15;16.13;;;7.40;;
18505;SDS011;9382;53.242;10.438;2022-12-07T04:17:44;14.23;;;6.50;;
18505;SDS011;9382;53.242;10.438;2022-12-07T04:20:11;14.00;;;7.47;;
18505;SDS011;9382;53.242;10.438;2022-12-07T04:22:39;19.03;;;7.23;;
18505;SDS011;9382;53.242;10.438;2022-12-07T04:25:06;16.17;;;7.53;;
18505;SDS011;9382;53.242;10.438;2022-12-07T04:27:33;14.57;;;6.40;;
18505;SDS011;9382;53.242;10.438;2022-12-07T04:30:00;18.20;;;7.50;;
18505;SDS011;9382;53.242;10.438;2022-12-07T04:32:27;14.33;;;7.30;;
18505;SDS011;9382;53.242;10.438;2022-12-07T04:34:55;13.77;;;7.17;;
18505;SDS011;9382;53.242;10.438;2022-12-07T04:37:22;16.13;;;8.10;;
18505;SDS011;9382;53.242;10.438;2022-12-07T04:39:49;15.93;;;7.67;;
18505;SDS011;9382;53.242;10.438;2022-12-07T04:42:16;17.93;;;8.50;;
18505;SDS011;9382;53.242;10.438;2022-12-07T04:44:43;19.00;;;8.50;;
18505;SDS011;9382;53.242;10.438;2022-12-07T04:47:10;14.90;;;7.87;;
18505;SDS011;9382;53.242;10.438;2022-12-07T04:49:37;16.70;;;8.10;;
18505;SDS011;9382;53.242;10.438;2022-12-07T04:52:05;20.30;;;9.17;;
18505;SDS011;9382;53.242;10.438;2022-12-07T04:54:32;15.40;;;7.30;;
18505;SDS011;9382;53.242;10.438;2022-12-07T04:56:59;16.87;;;6.97;;
18505;SDS011;9382;53.242;10.438;2022-12-07T04:59:26;14.13;;;6.83;;
18505;SDS011;9382;53.242;10.438;2022-12-07T05:01:53;14.00;;;6.53;;
18505;SDS011;9382;53.242;10.438;2022-12-07T05:04:20;14.00;;;6.53;;
18505;SDS011;9382;53.242;10.438;2022-12-07T05:06:46;13.40;;;5.90;;
18505;SDS011;9382;53.242;10.438;2022-12-07T05:09:15;12.83;;;5.60;;
18505;SDS011;9382;53.242;10.438;2022-12-07T05:11:41;13.80;;;5.63;;
18505;SDS011;9382;53.242;10.438;2022-12-07T05:14:09;11.23;;;5.57;;
18505;SDS011;9382;53.242;10.438;2022-12-07T05:16:39;13.47;;;6.07;;
18505;SDS011;9382;53.242;10.438;2022-12-07T05:19:07;9.90;;;5.70;;
18505;SDS011;9382;53.242;10.438;2022-12-07T05:21:34;11.43;;;5.70;;
18505;SDS011;9382;53.242;10.438;2022-12-07T05:24:01;11.80;;;5.10;;
18505;SDS011;9382;53.242;10.438;2022-12-07T05:26:30;9.20;;;5.57;;
18505;SDS011;9382;53.242;10.438;2022-12-07T05:28:57;9.67;;;5.50;;
18505;SDS011;9382;53.242;10.438;2022-12-07T05:31:25;10.63;;;5.20;;
18505;SDS011;9382;53.242;10.438;2022-12-07T05:33:52;11.63;;;5.53;;
18505;SDS011;9382;53.242;10.438;2022-12-07T05:36:19;9.63;;;4.77;;
18505;SDS011;9382;53.242;10.438;2022-12-07T05:38:46;10.57;;;4.90;;
18505;SDS011;9382;53.242;10.438;2022-12-07T05:41:14;9.83;;;4.83;;
18505;SDS011;9382;53.242;10.438;2022-12-07T05:44:02;10.33;;;4.73;;
18505;SDS011;9382;53.242;10.438;2022-12-07T05:46:29;11.07;;;5.00;;
18505;SDS011;9382;53.242;10.438;2022-12-07T05:48:55;7.57;;;4.50;;
18505;SDS011;9382;53.242;10.438;2022-12-07T05:51:22;10.70;;;4.50;;
18505;SDS011;9382;53.242;10.438;2022-12-07T05:53:49;9.70;;;4.50;;
18505;SDS011;9382;53.242;10.438;2022-12-07T05:56:16;8.40;;;4.60;;
18505;SDS011;9382;53.242;10.438;2022-12-07T05:58:43;11.03;;;4.80;;
18505;SDS011;9382;53.242;10.438;2022-12-07T06:01:28;9.20;;;4.90;;
18505;SDS011;9382;53.242;10.438;2022-12-07T06:03:55;9.87;;;4.73;;
18505;SDS011;9382;53.242;10.438;2022-12-07T06:06:22;9.77;;;5.03;;
18505;SDS011;9382;53.242;10.438;2022-12-07T06:08:49;9.90;;;5.03;;
18505;SDS011;9382;53.242;10.438;2022-12-07T06:11:16;10.20;;;5.63;;
18505;SDS011;9382;53.242;10.438;2022-12-07T06:14:00;9.87;;;4.97;;
18505;SDS011;9382;53.242;10.438;2022-12-07T06:16:28;8.13;;;4.63;;
18505;SDS011;9382;53.242;10.438;2022-12-07T06:18:55;7.67;;;4.73;;
18505;SDS011;9382;53.242;10.438;2022-12-07T06:21:22;10.33;;;5.17;;
18505;SDS011;9382;53.242;10.438;2022-12-07T06:23:50;9.07;;;4.23;;
18505;SDS011;9382;53.242;10.438;2022-12-07T06:26:17;8.73;;;5.10;;
18505;SDS011;9382;53.242;10.438;2022-12-07T06:28:44;11.20;;;4.60;;
18505;SDS011;9382;53.242;10.438;2022-12-07T06:31:11;8.80;;;4.90;;
18505;SDS011;9382;53.242;10.438;2022-12-07T06:33:39;9.87;;;4.47;;
18505;SDS011;9382;53.242;10.438;2022-12-07T06:36:06;9.50;;;4.83;;
18505;SDS011;9382;53.242;10.438;2022-12-07T06:38:33;9.20;;;4.53;;
18505;SDS011;9382;53.242;10.438;2022-12-07T06:41:00;12.50;;;5.00;;
18505;SDS011;9382;53.242;10.438;2022-12-07T06:43:27;16.67;;;6.43;;
18505;SDS011;9382;53.242;10.438;2022-12-07T06:45:54;14.53;;;6.50;;
18505;SDS011;9382;53.242;10.438;2022-12-07T06:48:21;7.83;;;4.73;;
18505;SDS011;9382;53.242;10.438;2022-12-07T06:50:49;15.10;;;5.00;;
18505;SDS011;9382;53.242;10.438;2022-12-07T06:53:16;9.20;;;5.17;;
18505;SDS011;9382;53.242;10.438;2022-12-07T06:55:43;10.77;;;5.30;;
18505;SDS011;9382;53.242;10.438;2022-12-07T06:58:10;9.67;;;4.97;;
18505;SDS011;9382;53.242;10.438;2022-12-07T07:00:37;9.93;;;5.57;;
18505;SDS011;9382;53.242;10.438;2022-12-07T07:03:03;11.27;;;5.37;;
18505;SDS011;9382;53.242;10.438;2022-12-07T07:05:30;10.80;;;5.17;;
18505;SDS011;9382;53.242;10.438;2022-12-07T07:07:58;13.93;;;5.97;;
18505;SDS011;9382;53.242;10.438;2022-12-07T07:10:25;10.63;;;6.13;;
18505;SDS011;9382;53.242;10.438;2022-12-07T07:12:52;9.60;;;5.53;;
18505;SDS011;9382;53.242;10.438;2022-12-07T07:15:19;13.37;;;5.73;;
18505;SDS011;9382;53.242;10.438;2022-12-07T07:17:46;12.03;;;5.60;;
18505;SDS011;9382;53.242;10.438;2022-12-07T07:20:13;16.17;;;6.27;;
18505;SDS011;9382;53.242;10.438;2022-12-07T07:22:40;23.23;;;6.03;;
18505;SDS011;9382;53.242;10.438;2022-12-07T07:25:08;10.43;;;5.10;;
18505;SDS011;9382;53.242;10.438;2022-12-07T07:27:35;11.97;;;5.30;;
18505;SDS011;9382;53.242;10.438;2022-12-07T07:30:02;16.00;;;5.83;;
18505;SDS011;9382;53.242;10.438;2022-12-07T07:32:29;11.30;;;5.63;;
18505;SDS011;9382;53.242;10.438;2022-12-07T07:34:56;9.70;;;5.00;;
18505;SDS011;9382;53.242;10.438;2022-12-07T07:37:23;7.73;;;4.77;;
18505;SDS011;9382;53.242;10.438;2022-12-07T07:39:50;9.50;;;4.67;;
18505;SDS011;9382;53.242;10.438;2022-12-07T07:42:18;9.00;;;4.60;;
18505;SDS011;9382;53.242;10.438;2022-12-07T07:44:45;8.80;;;4.60;;
18505;SDS011;9382;53.242;10.438;2022-12-07T07:47:12;11.23;;;4.97;;
18505;SDS011;9382;53.242;10.438;2022-12-07T07:49:38;6.27;;;4.27;;
18505;SDS011;9382;53.242;10.438;2022-12-07T07:52:05;10.87;;;4.60;;
18505;SDS011;9382;53.242;10.438;2022-12-07T07:54:32;10.40;;;4.77;;
18505;SDS011;9382;53.242;10.438;2022-12-07T07:56:59;8.73;;;4.37;;
18505;SDS011;9382;53.242;10.438;2022-12-07T07:59:27;8.30;;;4.37;;
18505;SDS011;9382;53.242;10.438;2022-12-07T08:01:54;8.87;;;4.60;;
18505;SDS011;9382;53.242;10.438;2022-12-07T08:04:21;9.10;;;4.43;;
18505;SDS011;9382;53.242;10.438;2022-12-07T08:06:48;13.67;;;5.07;;
18505;SDS011;9382;53.242;10.438;2022-12-07T08:09:14;9.93;;;5.27;;
18505;SDS011;9382;53.242;10.438;2022-12-07T08:11:41;8.30;;;4.60;;
18505;SDS011;9382;53.242;10.438;2022-12-07T08:14:09;9.27;;;4.87;;
18505;SDS011;9382;53.242;10.438;2022-12-07T08:16:38;6.93;;;4.33;;
18505;SDS011;9382;53.242;10.438;2022-12-07T08:19:05;9.80;;;4.17;;
18505;SDS011;9382;53.242;10.438;2022-12-07T08:21:32;8.30;;;4.63;;
18505;SDS011;9382;53.242;10.438;2022-12-07T08:23:59;10.57;;;4.30;;
18505;SDS011;9382;53.242;10.438;2022-12-07T08:26:26;9.77;;;4.50;;
18505;SDS011;9382;53.242;10.438;2022-12-07T08:28:53;8.70;;;4.50;;
18505;SDS011;9382;53.242;10.438;2022-12-07T08:31:19;7.57;;;4.53;;
18505;SDS011;9382;53.242;10.438;2022-12-07T08:33:48;8.77;;;4.50;;
18505;SDS011;9382;53.242;10.438;2022-12-07T08:36:15;6.63;;;4.27;;
18505;SDS011;9382;53.242;10.438;2022-12-07T08:38:42;7.50;;;4.33;;
18505;SDS011;9382;53.242;10.438;2022-12-07T08:41:09;9.80;;;4.17;;
18505;SDS011;9382;53.242;10.438;2022-12-07T08:43:36;8.77;;;4.40;;
18505;SDS011;9382;53.242;10.438;2022-12-07T08:46:05;10.33;;;5.13;;
18505;SDS011;9382;53.242;10.438;2022-12-07T08:48:36;7.73;;;4.60;;
18505;SDS011;9382;53.242;10.438;2022-12-07T08:51:08;13.70;;;5.00;;
18505;SDS011;9382;53.242;10.438;2022-12-07T08:53:35;10.80;;;4.90;;
18505;SDS011;9382;53.242;10.438;2022-12-07T08:56:04;9.07;;;4.70;;
18505;SDS011;9382;53.242;10.438;2022-12-07T08:58:34;8.13;;;4.73;;
18505;SDS011;9382;53.242;10.438;2022-12-07T09:01:03;7.83;;;4.53;;
18505;SDS011;9382;53.242;10.438;2022-12-07T09:03:31;7.47;;;4.43;;
18505;SDS011;9382;53.242;10.438;2022-12-07T09:05:58;7.67;;;4.10;;
18505;SDS011;9382;53.242;10.438;2022-12-07T09:08:26;8.53;;;4.37;;
18505;SDS011;9382;53.242;10.438;2022-12-07T09:10:57;9.03;;;4.93;;
18505;SDS011;9382;53.242;10.438;2022-12-07T09:13:25;6.50;;;4.07;;
18505;SDS011;9382;53.242;10.438;2022-12-07T09:15:52;7.43;;;4.20;;
18505;SDS011;9382;53.242;10.438;2022-12-07T09:18:18;5.63;;;3.90;;
18505;SDS011;9382;53.242;10.438;2022-12-07T09:20:45;9.30;;;4.20;;
18505;SDS011;9382;53.242;10.438;2022-12-07T09:23:12;9.60;;;4.10;;
18505;SDS011;9382;53.242;10.438;2022-12-07T09:25:40;5.93;;;3.73;;
18505;SDS011;9382;53.242;10.438;2022-12-07T09:28:07;7.83;;;3.67;;
18505;SDS011;9382;53.242;10.438;2022-12-07T09:30:34;8.87;;;3.80;;
18505;SDS011;9382;53.242;10.438;2022-12-07T09:33:01;6.27;;;3.53;;
18505;SDS011;9382;53.242;10.438;2022-12-07T09:35:28;7.23;;;3.20;;
18505;SDS011;9382;53.242;10.438;2022-12-07T09:37:55;5.30;;;3.40;;
18505;SDS011;9382;53.242;10.438;2022-12-07T09:40:22;8.07;;;3.17;;
18505;SDS011;9382;53.242;10.438;2022-12-07T09:42:52;5.57;;;3.30;;
18505;SDS011;9382;53.242;10.438;2022-12-07T09:45:21;5.03;;;3.17;;
18505;SDS011;9382;53.242;10.438;2022-12-07T09:47:50;6.27;;;3.43;;
18505;SDS011;9382;53.242;10.438;2022-12-07T09:50:19;6.10;;;3.10;;
18505;SDS011;9382;53.242;10.438;2022-12-07T09:52:47;5.30;;;3.60;;
18505;SDS011;9382;53.242;10.438;2022-12-07T09:55:19;4.63;;;3.13;;
18505;SDS011;9382;53.242;10.438;2022-12-07T09:57:51;9.83;;;3.53;;
18505;SDS011;9382;53.242;10.438;2022-12-07T10:00:20;5.07;;;3.23;;
18505;SDS011;9382;53.242;10.438;2022-12-07T10:02:50;4.67;;;2.90;;
18505;SDS011;9382;53.242;10.438;2022-12-07T10:05:20;5.03;;;2.90;;
18505;SDS011;9382;53.242;10.438;2022-12-07T10:07:50;6.70;;;3.00;;
18505;SDS011;9382;53.242;10.438;2022-12-07T10:10:19;4.10;;;2.80;;
18505;SDS011;9382;53.242;10.438;2022-12-07T10:12:55;5.57;;;3.07;;
18505;SDS011;9382;53.242;10.438;2022-12-07T10:15:23;6.07;;;3.13;;
18505;SDS011;9382;53.242;10.438;2022-12-07T10:18:14;4.23;;;3.10;;
18505;SDS011;9382;53.242;10.438;2022-12-07T10:20:44;4.90;;;3.30;;
18505;SDS011;9382;53.242;10.438;2022-12-07T10:23:13;5.10;;;3.00;;
18505;SDS011;9382;53.242;10.438;2022-12-07T10:25:41;6.77;;;3.20;;
18505;SDS011;9382;53.242;10.438;2022-12-07T10:28:13;6.23;;;3.07;;
18505;SDS011;9382;53.242;10.438;2022-12-07T10:30:50;4.67;;;2.80;;
18505;SDS011;9382;53.242;10.438;2022-12-07T10:33:28;4.10;;;2.80;;
18505;SDS011;9382;53.242;10.438;2022-12-07T10:35:57;7.03;;;2.87;;
18505;SDS011;9382;53.242;10.438;2022-12-07T10:38:24;8.37;;;2.80;;
18505;SDS011;9382;53.242;10.438;2022-12-07T10:41:02;8.83;;;3.77;;
18505;SDS011;9382;53.242;10.438;2022-12-07T10:43:31;7.33;;;2.60;;
18505;SDS011;9382;53.242;10.438;2022-12-07T10:46:13;7.33;;;2.37;;
18505;SDS011;9382;53.242;10.438;2022-12-07T10:49:04;5.27;;;2.30;;
18505;SDS011;9382;53.242;10.438;2022-12-07T10:51:48;2.90;;;2.53;;
18505;SDS011;9382;53.242;10.438;2022-12-07T10:54:22;7.03;;;2.30;;
18505;SDS011;9382;53.242;10.438;2022-12-07T10:57:16;3.67;;;2.10;;
18505;SDS011;9382;53.242;10.438;2022-12-07T10:59:57;4.53;;;2.07;;
18505;SDS011;9382;53.242;10.438;2022-12-07T11:02:37;6.83;;;2.00;;
18505;SDS011;9382;53.242;10.438;2022-12-07T11:05:23;5.80;;;2.10;;
18505;SDS011;9382;53.242;10.438;2022-12-07T11:07:58;4.13;;;1.83;;
18505;SDS011;9382;53.242;10.438;2022-12-07T11:10:31;2.47;;;1.50;;
18505;SDS011;9382;53.242;10.438;2022-12-07T11:13:11;3.23;;;1.50;;
18505;SDS011;9382;53.242;10.438;2022-12-07T11:15:53;4.43;;;1.50;;
18505;SDS011;9382;53.242;10.438;2022-12-07T11:18:29;2.57;;;1.50;;
18505;SDS011;9382;53.242;10.438;2022-12-07T11:21:03;2.93;;;1.70;;
18505;SDS011;9382;53.242;10.438;2022-12-07T11:23:37;1.60;;;1.37;;
18505;SDS011;9382;53.242;10.438;2022-12-07T11:26:13;1.93;;;1.50;;
18505;SDS011;9382;53.242;10.438;2022-12-07T11:28:56;2.47;;;1.33;;
18505;SDS011;9382;53.242;10.438;2022-12-07T11:31:34;4.77;;;1.90;;
18505;SDS011;9382;53.242;10.438;2022-12-07T11:34:12;5.50;;;1.60;;
18505;SDS011;9382;53.242;10.438;2022-12-07T11:36:50;3.80;;;2.00;;
18505;SDS011;9382;53.242;10.438;2022-12-07T11:39:22;1.70;;;1.43;;
18505;SDS011;9382;53.242;10.438;2022-12-07T11:41:54;5.70;;;1.70;;
18505;SDS011;9382;53.242;10.438;2022-12-07T11:44:27;5.10;;;1.90;;
18505;SDS011;9382;53.242;10.438;2022-12-07T11:47:01;4.87;;;1.97;;
18505;SDS011;9382;53.242;10.438;2022-12-07T11:49:37;4.03;;;1.80;;
18505;SDS011;9382;53.242;10.438;2022-12-07T11:52:11;3.03;;;1.73;;
18505;SDS011;9382;53.242;10.438;2022-12-07T11:54:44;4.77;;;1.90;;
18505;SDS011;9382;53.242;10.438;2022-12-07T11:57:16;2.50;;;1.70;;
18505;SDS011;9382;53.242;10.438;2022-12-07T11:59:49;6.00;;;2.10;;
18505;SDS011;9382;53.242;10.438;2022-12-07T12:02:26;5.33;;;2.20;;
18505;SDS011;9382;53.242;10.438;2022-12-07T12:05:01;2.30;;;1.63;;
18505;SDS011;9382;53.242;10.438;2022-12-07T12:07:38;6.40;;;2.00;;
18505;SDS011;9382;53.242;10.438;2022-12-07T12:10:13;5.27;;;2.10;;
18505;SDS011;9382;53.242;10.438;2022-12-07T12:12:54;6.07;;;2.10;;
18505;SDS011;9382;53.242;10.438;2022-12-07T12:15:37;5.37;;;2.30;;
18505;SDS011;9382;53.242;10.438;2022-12-07T12:18:17;4.57;;;2.17;;
18505;SDS011;9382;53.242;10.438;2022-12-07T12:21:03;5.20;;;2.07;;
18505;SDS011;9382;53.242;10.438;2022-12-07T12:23:35;5.83;;;2.43;;
18505;SDS011;9382;53.242;10.438;2022-12-07T12:26:07;6.57;;;2.40;;
18505;SDS011;9382;53.242;10.438;2022-12-07T12:28:40;6.60;;;2.30;;
18505;SDS011;9382;53.242;10.438;2022-12-07T12:31:16;9.67;;;2.40;;
18505;SDS011;9382;53.242;10.438;2022-12-07T12:34:00;6.90;;;2.33;;
18505;SDS011;9382;53.242;10.438;2022-12-07T12:36:42;7.57;;;2.17;;
18505;SDS011;9382;53.242;10.438;2022-12-07T12:39:12;5.80;;;2.37;;
18505;SDS011;9382;53.242;10.438;2022-12-07T12:44:41;6.13;;;2.43;;
18505;SDS011;9382;53.242;10.438;2022-12-07T12:50:20;6.17;;;2.07;;
18505;SDS011;9382;53.242;10.438;2022-12-07T12:52:56;7.53;;;2.20;;
18505;SDS011;9382;53.242;10.438;2022-12-07T12:58:34;5.00;;;2.43;;
18505;SDS011;9382;53.242;10.438;2022-12-07T13:04:27;5.73;;;2.10;;
18505;SDS011;9382;53.242;10.438;2022-12-07T13:10:39;6.20;;;2.50;;
18505;SDS011;9382;53.242;10.438;2022-12-07T13:13:30;4.33;;;2.10;;
18505;SDS011;9382;53.242;10.438;2022-12-07T13:22:31;6.67;;;2.30;;
18505;SDS011;9382;53.242;10.438;2022-12-07T13:25:18;5.13;;;2.00;;
18505;SDS011;9382;53.242;10.438;2022-12-07T13:27:54;6.80;;;2.23;;
18505;SDS011;9382;53.242;10.438;2022-12-07T13:30:23;7.47;;;2.40;;
18505;SDS011;9382;53.242;10.438;2022-12-07T13:32:54;6.57;;;2.27;;
18505;SDS011;9382;53.242;10.438;2022-12-07T13:35:31;6.10;;;2.17;;
18505;SDS011;9382;53.242;10.438;2022-12-07T13:38:01;4.90;;;2.17;;
18505;SDS011;9382;53.242;10.438;2022-12-07T13:40:31;8.83;;;1.93;;
18505;SDS011;9382;53.242;10.438;2022-12-07T13:42:59;6.80;;;2.10;;
18505;SDS011;9382;53.242;10.438;2022-12-07T13:45:29;8.77;;;2.37;;
18505;SDS011;9382;53.242;10.438;2022-12-07T13:48:19;9.07;;;2.20;;
18505;SDS011;9382;53.242;10.438;2022-12-07T13:50:54;6.10;;;2.10;;
18505;SDS011;9382;53.242;10.438;2022-12-07T13:53:22;6.60;;;2.30;;
18505;SDS011;9382;53.242;10.438;2022-12-07T13:55:49;5.87;;;2.30;;
18505;SDS011;9382;53.242;10.438;2022-12-07T13:58:18;13.50;;;5.07;;
18505;SDS011;9382;53.242;10.438;2022-12-07T14:00:45;7.53;;;3.03;;
18505;SDS011;9382;53.242;10.438;2022-12-07T14:03:29;9.03;;;3.03;;
18505;SDS011;9382;53.242;10.438;2022-12-07T14:06:05;7.43;;;2.37;;
18505;SDS011;9382;53.242;10.438;2022-12-07T14:08:39;5.27;;;2.20;;
18505;SDS011;9382;53.242;10.438;2022-12-07T14:11:05;7.50;;;2.60;;
18505;SDS011;9382;53.242;10.438;2022-12-07T14:13:37;7.20;;;2.60;;
18505;SDS011;9382;53.242;10.438;2022-12-07T14:16:17;7.90;;;2.60;;
18505;SDS011;9382;53.242;10.438;2022-12-07T14:18:49;6.40;;;2.27;;
18505;SDS011;9382;53.242;10.438;2022-12-07T14:21:17;5.87;;;2.30;;
18505;SDS011;9382;53.242;10.438;2022-12-07T14:24:01;10.87;;;2.80;;
18505;SDS011;9382;53.242;10.438;2022-12-07T14:26:41;9.13;;;2.47;;
18505;SDS011;9382;53.242;10.438;2022-12-07T14:29:20;5.50;;;2.27;;
18505;SDS011;9382;53.242;10.438;2022-12-07T14:31:48;6.80;;;2.30;;
18505;SDS011;9382;53.242;10.438;2022-12-07T14:34:15;6.93;;;2.20;;
18505;SDS011;9382;53.242;10.438;2022-12-07T14:36:42;5.33;;;2.10;;
18505;SDS011;9382;53.242;10.438;2022-12-07T14:39:09;6.77;;;2.30;;
18505;SDS011;9382;53.242;10.438;2022-12-07T14:41:35;9.50;;;2.73;;
18505;SDS011;9382;53.242;10.438;2022-12-07T14:44:18;5.03;;;2.20;;
18505;SDS011;9382;53.242;10.438;2022-12-07T14:46:47;11.63;;;2.80;;
18505;SDS011;9382;53.242;10.438;2022-12-07T14:49:15;5.47;;;2.70;;
18505;SDS011;9382;53.242;10.438;2022-12-07T14:51:42;8.13;;;2.63;;
18505;SDS011;9382;53.242;10.438;2022-12-07T14:54:13;7.73;;;3.00;;
18505;SDS011;9382;53.242;10.438;2022-12-07T14:56:42;7.30;;;2.87;;
18505;SDS011;9382;53.242;10.438;2022-12-07T14:59:10;4.70;;;2.80;;
18505;SDS011;9382;53.242;10.438;2022-12-07T15:01:39;6.97;;;2.70;;
18505;SDS011;9382;53.242;10.438;2022-12-07T15:04:06;5.60;;;2.60;;
18505;SDS011;9382;53.242;10.438;2022-12-07T15:06:33;4.77;;;2.23;;
18505;SDS011;9382;53.242;10.438;2022-12-07T15:09:00;7.53;;;2.43;;
18505;SDS011;9382;53.242;10.438;2022-12-07T15:11:27;5.97;;;2.57;;
18505;SDS011;9382;53.242;10.438;2022-12-07T15:13:53;6.67;;;2.20;;
18505;SDS011;9382;53.242;10.438;2022-12-07T15:16:39;6.17;;;2.27;;
18505;SDS011;9382;53.242;10.438;2022-12-07T15:19:09;7.60;;;2.50;;
18505;SDS011;9382;53.242;10.438;2022-12-07T15:21:39;7.80;;;2.70;;
18505;SDS011;9382;53.242;10.438;2022-12-07T15:24:07;5.57;;;2.50;;